Time;durP1;ratioP1;P1;durP2;ratioP2;P2;SDS_P1;SDS_P2;PMS_P1;PMS_P2;Temp;Humidity;BMP_temperature;BMP_pressure;BME280_temperature;BME280_humidity;BME280_pressure;Samples;Min_cycle;Max_cycle;Signal;HPM_P1;HPM_P2
2022/03/20 00:02:28;;;;;;;9.77;4.90;;;;;;;7.53;53.46;103256.88;5032950;28;20068;-52
2022/03/20 00:04:56;;;;;;;10.15;4.70;;;;;;;7.58;53.00;103259.88;5033382;28;20128;-46
2022/03/20 00:07:24;;;;;;;9.77;4.50;;;;;;;7.41;53.80;103252.97;5032843;28;20125;-48
2022/03/20 00:09:52;;;;;;;11.18;4.72;;;;;;;7.33;53.84;103250.31;5033059;28;20045;-49
2022/03/20 00:12:19;;;;;;;9.27;4.63;;;;;;;7.34;53.56;103246.59;5032133;28;20040;-52
2022/03/20 00:14:47;;;;;;;11.32;4.63;;;;;;;7.38;53.37;103237.03;5033051;28;20041;-49
2022/03/20 00:17:16;;;;;;;11.85;4.85;;;;;;;7.27;53.64;103232.09;5033005;28;20040;-47
2022/03/20 00:19:44;;;;;;;10.40;4.50;;;;;;;7.22;54.17;103230.78;5033330;28;20385;-46
2022/03/20 00:22:12;;;;;;;10.52;4.75;;;;;;;7.19;54.24;103233.88;5032930;28;20056;-50
2022/03/20 00:24:40;;;;;;;9.45;4.78;;;;;;;7.14;53.95;103225.41;5033050;28;20033;-47
2022/03/20 00:27:10;;;;;;;9.10;4.57;;;;;;;7.14;54.61;103219.16;5031893;28;20053;-46
2022/03/20 00:29:38;;;;;;;8.85;4.82;;;;;;;7.15;54.03;103221.69;5031725;28;20080;-47
2022/03/20 00:32:07;;;;;;;10.52;5.13;;;;;;;7.20;54.32;103213.00;5032847;28;20037;-48
2022/03/20 00:34:35;;;;;;;8.77;4.28;;;;;;;7.20;54.57;103213.84;5033166;28;20132;-46
2022/03/20 00:37:03;;;;;;;9.70;4.35;;;;;;;7.24;54.70;103203.50;5032555;28;20069;-49
2022/03/20 00:39:31;;;;;;;9.88;4.45;;;;;;;7.17;55.10;103197.97;5033317;28;20054;-47
2022/03/20 00:42:01;;;;;;;11.95;4.70;;;;;;;7.09;55.36;103200.75;5032513;28;20045;-47
2022/03/20 00:44:28;;;;;;;11.63;5.07;;;;;;;7.01;55.88;103201.69;5015264;28;20045;-47
2022/03/20 00:46:56;;;;;;;9.98;5.00;;;;;;;6.89;55.81;103192.31;5032581;28;20042;-46
2022/03/20 00:49:23;;;;;;;9.70;4.95;;;;;;;6.82;56.24;103186.78;5032425;28;20051;-47
2022/03/20 00:51:51;;;;;;;11.57;5.18;;;;;;;6.87;56.36;103182.69;5032589;28;20046;-49
2022/03/20 00:54:19;;;;;;;12.40;5.80;;;;;;;6.83;56.17;103180.38;5034108;28;20061;-50
2022/03/20 00:56:46;;;;;;;10.90;5.80;;;;;;;6.91;55.77;103176.72;5036139;28;20048;-48
2022/03/20 00:59:14;;;;;;;9.63;4.88;;;;;;;6.93;55.78;103174.69;5036192;28;20128;-50
2022/03/20 01:01:42;;;;;;;11.18;5.88;;;;;;;6.94;56.02;103168.22;5036109;28;20059;-48
2022/03/20 01:04:10;;;;;;;10.98;6.30;;;;;;;6.86;55.71;103172.91;5036603;28;20053;-47
2022/03/20 01:06:38;;;;;;;12.32;5.95;;;;;;;6.72;56.49;103167.25;5037316;28;20492;-48
2022/03/20 01:09:06;;;;;;;13.65;6.35;;;;;;;6.70;56.36;103163.88;5036332;28;20037;-47
2022/03/20 01:11:34;;;;;;;11.43;6.20;;;;;;;6.72;56.00;103164.53;5036496;28;20049;-46
2022/03/20 01:14:01;;;;;;;12.32;6.53;;;;;;;6.59;56.86;103157.06;5035117;28;20034;-46
2022/03/20 01:16:29;;;;;;;13.55;6.85;;;;;;;6.46;56.87;103164.13;5036417;28;20042;-47
2022/03/20 01:18:57;;;;;;;12.90;7.28;;;;;;;6.44;57.04;103160.75;5036208;28;20068;-48
2022/03/20 01:21:24;;;;;;;12.82;6.97;;;;;;;6.56;56.94;103159.28;5035891;28;20124;-47
2022/03/20 01:23:52;;;;;;;11.82;7.63;;;;;;;6.66;55.98;103148.19;5036125;28;20104;-49
2022/03/20 01:26:19;;;;;;;15.55;7.18;;;;;;;6.80;56.09;103148.19;5036003;28;20054;-48
2022/03/20 01:28:47;;;;;;;14.02;8.10;;;;;;;6.88;55.15;103143.72;5036158;28;20064;-47
2022/03/20 01:31:16;;;;;;;14.13;7.93;;;;;;;6.81;54.42;103132.81;5036122;28;20049;-47
2022/03/20 01:33:44;;;;;;;14.90;9.30;;;;;;;6.70;54.72;103136.78;5037105;28;20132;-48
2022/03/20 01:36:11;;;;;;;15.05;9.65;;;;;;;6.58;55.08;103124.72;5054097;28;20045;-49
2022/03/20 01:38:40;;;;;;;16.50;8.40;;;;;;;6.47;55.88;103117.03;5054409;28;20573;-47
2022/03/20 01:41:08;;;;;;;13.88;8.82;;;;;;;6.49;55.92;103118.53;5053694;28;20419;-48
2022/03/20 01:43:35;;;;;;;14.35;8.50;;;;;;;6.30;56.20;103117.22;5054587;28;20041;-48
2022/03/20 01:46:03;;;;;;;14.55;8.50;;;;;;;6.29;56.11;103110.09;5041355;28;20060;-46
2022/03/20 01:48:31;;;;;;;18.42;9.57;;;;;;;6.28;56.46;103105.72;5035824;28;20038;-47
2022/03/20 01:50:58;;;;;;;16.02;9.68;;;;;;;6.34;56.30;103099.56;5035507;28;20049;-47
2022/03/20 01:53:27;;;;;;;16.40;9.32;;;;;;;6.41;56.08;103088.84;5035886;28;20037;-49
2022/03/20 01:55:56;;;;;;;18.45;10.05;;;;;;;6.52;55.74;103096.53;5035607;28;20048;-48
2022/03/20 01:58:25;;;;;;;21.70;10.05;;;;;;;6.35;55.83;103093.13;5037125;28;20045;-49
2022/03/20 02:00:52;;;;;;;17.33;8.65;;;;;;;6.24;56.36;103090.88;5055004;28;20385;-48
2022/03/20 02:03:21;;;;;;;14.15;9.27;;;;;;;6.33;56.25;103089.78;5044292;28;20052;-47
2022/03/20 02:05:49;;;;;;;19.85;10.00;;;;;;;6.39;56.42;103078.19;5034266;28;20439;-49
2022/03/20 02:08:16;;;;;;;14.55;10.00;;;;;;;6.47;55.63;103084.53;5034135;28;20052;-47
2022/03/20 02:10:45;;;;;;;15.68;7.95;;;;;;;6.42;55.94;103076.13;5049279;28;20484;-43
2022/03/20 02:13:12;;;;;;;17.23;10.43;;;;;;;6.35;56.15;103074.19;5055207;28;20038;-49
2022/03/20 02:15:40;;;;;;;15.82;10.35;;;;;;;6.20;56.82;103065.19;5055179;28;20048;-48
2022/03/20 02:18:08;;;;;;;15.07;9.13;;;;;;;6.25;56.72;103057.34;5048561;28;20514;-46
2022/03/20 02:20:35;;;;;;;15.63;8.98;;;;;;;6.08;56.98;103053.13;5030406;28;20132;-47
2022/03/20 02:23:03;;;;;;;16.00;9.27;;;;;;;6.10;56.79;103056.47;5053278;28;20041;-47
2022/03/20 02:25:31;;;;;;;12.00;7.32;;;;;;;6.11;56.84;103053.59;5055010;28;20052;-48
2022/03/20 02:28:01;;;;;;;16.98;9.65;;;;;;;6.14;57.76;103049.69;5055074;28;20048;-48
2022/03/20 02:30:30;;;;;;;14.02;9.10;;;;;;;6.13;56.87;103054.25;5047702;28;20049;-50
2022/03/20 02:32:58;;;;;;;18.27;10.95;;;;;;;6.15;56.39;103059.47;5034835;28;20116;-48
2022/03/20 02:35:27;;;;;;;16.38;8.05;;;;;;;5.92;57.17;103049.50;5035962;28;20048;-47
2022/03/20 02:37:55;;;;;;;14.70;10.48;;;;;;;6.00;57.16;103039.66;5033353;28;20425;-47
2022/03/20 02:40:23;;;;;;;20.92;12.60;;;;;;;5.87;57.24;103038.41;5034744;28;20050;-48
2022/03/20 02:42:54;;;;;;;17.13;10.52;;;;;;;5.96;57.25;103031.06;5054307;28;20155;-49
2022/03/20 02:45:27;;;;;;;17.98;10.95;;;;;;;5.69;57.52;103035.16;5054723;28;20045;-48
2022/03/20 02:47:56;;;;;;;21.65;12.30;;;;;;;5.59;58.02;103023.75;5052871;28;20048;-46
2022/03/20 02:50:29;;;;;;;15.20;10.48;;;;;;;5.60;58.19;103020.84;5053501;28;20051;-44
2022/03/20 02:52:58;;;;;;;20.02;13.38;;;;;;;5.70;57.71;103020.59;5036268;28;20041;-44
2022/03/20 02:55:30;;;;;;;15.30;10.55;;;;;;;5.79;58.00;103022.22;5035819;28;20088;-48
2022/03/20 02:58:01;;;;;;;21.17;12.40;;;;;;;5.80;57.69;103015.78;5034457;28;20400;-49
2022/03/20 03:00:30;;;;;;;18.80;11.20;;;;;;;5.91;57.67;103011.81;5037421;28;20037;-48
2022/03/20 03:03:01;;;;;;;18.50;12.50;;;;;;;5.82;57.49;103005.63;5040425;28;20099;-49
2022/03/20 03:05:32;;;;;;;18.48;12.13;;;;;;;5.66;58.28;103005.78;5034454;28;20045;-47
2022/03/20 03:11:01;;;;;;;17.58;11.60;;;;;;;5.61;58.67;103000.06;5053243;28;20124;-45
2022/03/20 03:13:30;;;;;;;17.10;11.63;;;;;;;5.69;58.23;102990.00;5041567;28;20056;-46
2022/03/20 03:16:02;;;;;;;18.35;13.00;;;;;;;5.76;58.12;102990.13;5054471;28;20045;-46
2022/03/20 03:18:30;;;;;;;19.20;12.85;;;;;;;5.74;57.92;103000.28;5054108;28;20049;-47
2022/03/20 03:20:59;;;;;;;18.08;12.05;;;;;;;5.71;57.97;102987.13;5052982;28;20053;-47
2022/03/20 03:23:27;;;;;;;18.45;11.82;;;;;;;5.52;58.99;102981.19;5043594;28;20053;-47
2022/03/20 03:25:55;;;;;;;18.90;11.98;;;;;;;5.53;59.16;102979.31;5034725;28;20045;-47
2022/03/20 03:28:28;;;;;;;21.83;13.63;;;;;;;5.42;59.10;102971.66;5034023;28;20048;-48
2022/03/20 03:30:56;;;;;;;14.60;9.95;;;;;;;5.35;59.92;102976.94;5034253;28;20064;-50
2022/03/20 03:33:24;;;;;;;16.52;11.98;;;;;;;5.40;59.53;102982.63;5036344;28;20551;-48
2022/03/20 03:35:53;;;;;;;20.08;11.90;;;;;;;5.45;59.52;102973.97;5051632;28;20037;-52
2022/03/20 03:38:25;;;;;;;16.23;11.10;;;;;;;5.36;59.58;102961.53;5052654;28;20446;-47
2022/03/20 03:40:55;;;;;;;20.13;13.05;;;;;;;5.31;59.93;102956.69;5052280;28;20393;-49
2022/03/20 03:43:23;;;;;;;19.27;12.27;;;;;;;5.08;60.18;102957.50;5051757;28;20098;-48
2022/03/20 03:45:53;;;;;;;18.77;12.38;;;;;;;5.03;60.86;102959.91;5035288;28;20045;-47
2022/03/20 03:48:21;;;;;;;17.33;11.95;;;;;;;5.00;61.08;102952.16;5032482;28;20038;-50
2022/03/20 03:50:51;;;;;;;17.67;11.93;;;;;;;5.13;61.20;102944.31;5033356;28;20049;-47
2022/03/20 03:53:19;;;;;;;16.10;11.32;;;;;;;5.20;60.77;102935.50;5037214;28;20060;-50
2022/03/20 03:55:47;;;;;;;16.50;11.18;;;;;;;5.19;60.70;102929.22;5044978;28;20032;-49
2022/03/20 03:58:15;;;;;;;17.33;10.73;;;;;;;5.16;60.64;102935.00;5053596;28;20052;-48
2022/03/20 04:00:43;;;;;;;20.52;12.88;;;;;;;5.25;60.49;102930.38;5052944;28;20043;-48
2022/03/20 04:03:12;;;;;;;19.20;12.07;;;;;;;5.15;61.06;102919.81;5051858;28;20048;-48
2022/03/20 04:05:40;;;;;;;17.77;12.68;;;;;;;5.12;60.99;102929.13;5042366;28;20041;-48
2022/03/20 04:08:09;;;;;;;19.63;12.30;;;;;;;5.11;61.11;102924.72;5050296;28;20071;-50
2022/03/20 04:10:36;;;;;;;22.55;13.10;;;;;;;5.05;60.54;102933.56;5053401;28;20041;-46
2022/03/20 04:13:05;;;;;;;17.42;12.13;;;;;;;5.08;60.92;102924.25;5049063;28;20077;-49
2022/03/20 04:15:32;;;;;;;17.83;12.23;;;;;;;5.22;60.56;102922.63;5044373;28;20045;-49
2022/03/20 04:18:01;;;;;;;19.40;12.43;;;;;;;5.24;59.99;102921.44;5053226;28;20124;-48
2022/03/20 04:20:29;;;;;;;16.23;11.20;;;;;;;5.19;60.46;102923.00;5053183;28;20052;-49
2022/03/20 04:25:43;;;;;;;19.40;11.80;;;;;;;5.05;60.65;102901.16;5027924;28;20030;-48
2022/03/20 04:28:11;;;;;;;19.27;12.38;;;;;;;5.00;60.63;102892.72;5031945;28;20056;-49
2022/03/20 04:30:39;;;;;;;15.50;8.73;;;;;;;4.90;61.26;102890.25;5036614;28;20052;-47
2022/03/20 04:33:06;;;;;;;21.23;12.45;;;;;;;4.88;61.14;102875.25;5041889;28;20097;-47
2022/03/20 04:35:35;;;;;;;18.20;12.15;;;;;;;5.01;60.63;102866.56;5052627;28;20518;-48
2022/03/20 04:38:04;;;;;;;16.48;10.05;;;;;;;5.00;60.87;102871.09;5056693;28;20053;-47
2022/03/20 04:40:33;;;;;;;15.55;9.98;;;;;;;4.97;60.79;102867.94;5057196;28;20482;-46
2022/03/20 04:43:01;;;;;;;16.77;10.98;;;;;;;5.01;60.70;102856.59;5054446;28;20503;-47
2022/03/20 04:45:29;;;;;;;17.80;11.68;;;;;;;5.02;60.37;102860.97;5049633;28;20068;-47
2022/03/20 04:59:02;;;;;;;17.42;10.27;;;;;;;5.19;59.71;102855.44;5036750;28;20041;-51
2022/03/20 05:01:29;;;;;;;16.15;11.40;;;;;;;5.28;59.32;102852.47;5035511;28;20049;-49
2022/03/20 05:03:58;;;;;;;20.27;11.88;;;;;;;5.30;59.01;102863.13;5039715;28;20038;-47
2022/03/20 05:06:26;;;;;;;19.10;11.82;;;;;;;5.28;58.76;102859.75;5056532;28;20072;-50
2022/03/20 05:13:19;;;;;;;17.00;11.57;;;;;;;5.21;58.89;102850.69;5055362;28;20056;-48
2022/03/20 05:14:28;;;;;;;;;;;;;;;5.20;59.02;102827.41;5049307;28;20045;-44
2022/03/20 05:17:07;;;;;;;20.02;11.85;;;;;;;5.13;58.16;102833.53;5056375;28;19925;-46
2022/03/20 05:19:36;;;;;;;20.23;13.43;;;;;;;4.80;58.79;102822.13;5055242;28;20049;-46
2022/03/20 05:22:05;;;;;;;20.88;14.15;;;;;;;4.82;58.92;102821.97;5055077;28;20041;-50
2022/03/20 05:24:36;;;;;;;20.95;13.60;;;;;;;4.82;58.26;102825.50;5045132;28;20087;-49
2022/03/20 05:27:04;;;;;;;20.10;13.32;;;;;;;4.82;58.06;102821.97;5056236;28;20049;-47
2022/03/20 05:29:33;;;;;;;22.80;14.00;;;;;;;4.95;57.32;102819.47;5056009;28;20044;-48
2022/03/20 05:32:04;;;;;;;19.73;14.25;;;;;;;4.94;57.03;102831.31;5052060;28;20044;-43
2022/03/20 05:34:33;;;;;;;18.30;10.98;;;;;;;5.04;57.18;102817.56;5039932;28;20044;-47
2022/03/20 05:37:06;;;;;;;22.00;12.57;;;;;;;5.15;56.53;102816.28;5043836;28;20061;-45
2022/03/20 05:39:33;;;;;;;20.70;13.30;;;;;;;5.25;55.91;102811.47;5037182;28;20057;-43
2022/03/20 05:42:01;;;;;;;20.25;13.77;;;;;;;5.28;55.38;102806.53;5036811;28;20480;-45
2022/03/20 05:44:29;;;;;;;21.48;13.52;;;;;;;5.33;54.74;102811.38;5046391;28;20124;-43
2022/03/20 05:46:58;;;;;;;22.13;14.30;;;;;;;5.27;54.60;102809.44;5054637;28;20376;-42
2022/03/20 05:49:25;;;;;;;20.05;12.90;;;;;;;5.25;54.60;102811.47;5038510;28;20037;-43
2022/03/20 05:51:54;;;;;;;20.35;13.50;;;;;;;5.28;54.39;102814.63;5049349;28;20033;-44
2022/03/20 05:54:22;;;;;;;20.60;13.90;;;;;;;5.22;54.61;102814.50;5047684;28;20055;-44
2022/03/20 05:59:37;;;;;;;;;;;;;;;5.26;54.09;102816.66;5035919;28;20044;-45
2022/03/20 06:02:08;;;;;;;22.25;14.07;;;;;;;5.28;53.74;102813.78;5051179;28;19921;-47
2022/03/20 06:04:37;;;;;;;19.02;13.48;;;;;;;5.18;53.82;102810.53;5049027;28;20077;-43
2022/03/20 06:07:05;;;;;;;20.65;13.38;;;;;;;5.05;54.47;102800.31;5046109;28;20048;-48
2022/03/20 06:09:33;;;;;;;21.02;14.23;;;;;;;4.95;54.35;102805.13;5054451;28;20041;-48
2022/03/20 06:12:01;;;;;;;21.67;14.70;;;;;;;4.97;54.31;102803.94;5054725;28;20467;-48
2022/03/20 06:14:29;;;;;;;21.35;14.38;;;;;;;4.95;54.77;102800.56;5054260;28;20041;-44
2022/03/20 06:16:58;;;;;;;19.90;14.02;;;;;;;5.01;54.36;102804.44;5035665;28;20037;-46
2022/03/20 06:19:26;;;;;;;22.23;14.27;;;;;;;5.17;53.78;102796.19;5048902;28;20051;-46
2022/03/20 06:21:54;;;;;;;20.58;13.60;;;;;;;5.28;53.50;102792.19;5053059;28;20484;-48
2022/03/20 06:24:21;;;;;;;22.08;15.02;;;;;;;5.26;53.32;102786.09;5055062;28;20048;-47
2022/03/20 06:26:49;;;;;;;24.40;14.32;;;;;;;5.17;53.49;102792.63;5036794;28;20044;-46
2022/03/20 06:29:17;;;;;;;27.33;15.15;;;;;;;5.04;53.36;102785.97;5054571;28;20044;-47
2022/03/20 06:31:48;;;;;;;18.25;13.07;;;;;;;5.07;53.78;102782.06;5046736;28;20038;-48
2022/03/20 06:34:17;;;;;;;23.50;15.60;;;;;;;5.06;53.93;102783.94;5035213;28;20053;-47
2022/03/20 06:36:45;;;;;;;23.00;14.88;;;;;;;5.04;53.64;102783.28;5053735;28;20033;-45
2022/03/20 06:39:13;;;;;;;24.65;14.82;;;;;;;5.09;53.17;102780.84;5054366;28;20522;-44
2022/03/20 06:41:41;;;;;;;21.10;14.90;;;;;;;5.20;52.89;102778.75;5051905;28;20045;-44
2022/03/20 06:44:15;;;;;;;24.60;14.77;;;;;;;5.19;52.80;102785.16;5044221;28;20041;-45
2022/03/20 06:46:44;;;;;;;23.90;13.95;;;;;;;5.26;52.24;102791.50;5034659;28;20076;-46
2022/03/20 06:49:11;;;;;;;22.90;15.18;;;;;;;5.20;52.14;102779.59;5033236;28;20523;-44
2022/03/20 06:51:39;;;;;;;23.20;14.57;;;;;;;5.12;52.18;102779.66;5034343;28;20044;-46
2022/03/20 06:54:07;;;;;;;21.42;13.32;;;;;;;5.13;52.08;102787.59;5038088;28;20055;-50
2022/03/20 06:56:34;;;;;;;23.75;15.43;;;;;;;5.22;51.14;102779.38;5048244;28;20521;-51
2022/03/20 06:59:02;;;;;;;24.63;15.82;;;;;;;5.03;50.91;102770.81;5053869;28;20404;-48
2022/03/20 07:01:30;;;;;;;21.88;14.40;;;;;;;5.00;51.53;102776.53;5051794;28;20119;-46
2022/03/20 07:03:59;;;;;;;21.60;14.65;;;;;;;5.04;50.96;102767.06;5046081;28;20076;-48
2022/03/20 07:06:29;;;;;;;21.80;14.95;;;;;;;5.09;50.81;102759.25;5048606;28;20499;-46
2022/03/20 07:09:01;;;;;;;23.95;14.40;;;;;;;5.08;50.63;102754.88;5045243;28;20080;-47
2022/03/20 07:11:32;;;;;;;21.90;15.23;;;;;;;5.07;50.16;102763.16;5049216;28;20095;-49
2022/03/20 07:14:01;;;;;;;21.80;13.82;;;;;;;5.18;50.53;102761.88;5046444;28;20091;-48
2022/03/20 07:16:31;;;;;;;24.48;15.00;;;;;;;5.28;49.61;102762.44;5038446;28;20034;-48
2022/03/20 07:18:59;;;;;;;24.85;14.70;;;;;;;5.26;49.07;102748.28;5045170;28;20129;-44
2022/03/20 07:21:28;;;;;;;19.85;14.15;;;;;;;5.28;48.80;102746.22;5033934;28;20045;-44
2022/03/20 07:23:57;;;;;;;20.38;14.65;;;;;;;5.27;48.59;102745.41;5033991;28;20045;-44
2022/03/20 07:29:29;;;;;;;21.30;13.90;;;;;;;5.30;48.09;102733.38;5032680;28;20530;-49
2022/03/20 07:32:02;;;;;;;23.67;12.80;;;;;;;5.32;48.38;102728.63;5048483;28;20036;-47
2022/03/20 07:34:31;;;;;;;20.65;14.57;;;;;;;5.37;47.68;102712.69;5052110;28;20076;-47
2022/03/20 07:37:00;;;;;;;21.60;12.13;;;;;;;5.44;47.57;102705.50;5053392;28;20482;-49
2022/03/20 07:39:28;;;;;;;23.48;13.50;;;;;;;5.38;47.16;102692.72;5051860;28;20057;-50
2022/03/20 07:41:57;;;;;;;21.15;13.80;;;;;;;5.36;47.28;102694.78;5050891;28;20140;-47
2022/03/20 07:44:26;;;;;;;20.75;13.82;;;;;;;5.35;47.70;102690.41;5052104;28;20120;-45
2022/03/20 07:46:54;;;;;;;23.17;14.27;;;;;;;5.38;46.99;102686.50;5053339;28;20051;-52
2022/03/20 07:49:22;;;;;;;21.35;14.15;;;;;;;5.45;46.94;102703.63;5053171;28;20049;-45
2022/03/20 07:51:50;;;;;;;24.30;14.90;;;;;;;5.44;46.33;102700.09;5036028;28;20042;-45
2022/03/20 07:54:17;;;;;;;22.73;14.73;;;;;;;5.46;46.87;102700.75;5032091;28;20041;-45
2022/03/20 07:56:45;;;;;;;20.17;13.32;;;;;;;5.50;46.73;102693.94;5040617;28;20404;-45
2022/03/20 07:59:16;;;;;;;23.08;13.98;;;;;;;5.57;46.77;102690.47;5046930;28;20033;-45
2022/03/20 08:01:44;;;;;;;22.90;14.30;;;;;;;5.50;46.54;102685.81;5034232;28;20045;-46
2022/03/20 08:04:12;;;;;;;17.70;12.73;;;;;;;5.51;46.82;102687.50;5032218;28;20048;-50
2022/03/20 08:06:40;;;;;;;20.52;13.63;;;;;;;5.59;46.62;102669.50;5033081;28;20515;-45
2022/03/20 08:09:07;;;;;;;20.45;14.30;;;;;;;5.63;46.36;102673.50;5033311;28;20050;-47
2022/03/20 08:11:35;;;;;;;18.23;11.75;;;;;;;5.67;46.73;102669.38;5034088;28;20051;-48
2022/03/20 08:14:07;;;;;;;22.52;15.32;;;;;;;5.61;46.32;102664.75;5042699;28;20040;-48
2022/03/20 08:16:39;;;;;;;19.00;13.20;;;;;;;5.60;46.67;102663.06;5053220;28;20049;-53
2022/03/20 08:19:09;;;;;;;18.67;10.43;;;;;;;5.73;47.33;102655.13;5042369;28;20492;-53
2022/03/20 08:21:38;;;;;;;20.92;13.70;;;;;;;5.70;46.73;102658.19;5051389;28;20132;-50
2022/03/20 08:24:06;;;;;;;20.98;14.90;;;;;;;5.63;46.34;102654.56;5051665;28;20040;-50
2022/03/20 08:26:34;;;;;;;22.98;15.82;;;;;;;5.55;47.06;102642.00;5039581;28;20046;-53
2022/03/20 08:29:02;;;;;;;24.00;15.15;;;;;;;5.47;47.54;102642.94;5040028;28;20045;-48
2022/03/20 08:31:30;;;;;;;21.77;15.15;;;;;;;5.52;46.78;102658.59;5047927;28;20040;-45
2022/03/20 08:33:58;;;;;;;22.17;15.38;;;;;;;5.57;47.08;102658.03;5053030;28;20399;-50
2022/03/20 08:36:26;;;;;;;26.70;15.40;;;;;;;5.59;46.93;102653.28;5053063;28;20041;-50
2022/03/20 08:38:54;;;;;;;23.13;13.98;;;;;;;5.57;47.05;102652.63;5051124;28;20067;-52
2022/03/20 08:41:21;;;;;;;21.35;14.82;;;;;;;5.58;46.86;102652.44;5053137;28;20051;-53
2022/03/20 08:43:49;;;;;;;27.95;15.85;;;;;;;5.65;46.70;102647.09;5051518;28;20049;-50
2022/03/20 08:46:17;;;;;;;25.10;15.57;;;;;;;5.68;46.26;102650.28;5052617;28;20045;-52
2022/03/20 08:48:45;;;;;;;24.42;16.00;;;;;;;5.61;46.47;102648.53;5050153;28;20072;-51
2022/03/20 08:51:12;;;;;;;30.27;15.13;;;;;;;5.60;47.01;102641.44;5052918;28;20045;-52
2022/03/20 08:53:40;;;;;;;22.55;14.52;;;;;;;5.66;46.94;102640.69;5052881;28;20396;-52
2022/03/20 08:56:07;;;;;;;23.13;15.60;;;;;;;5.74;46.94;102654.06;5052843;28;20043;-51
2022/03/20 08:58:35;;;;;;;20.88;14.63;;;;;;;5.75;46.97;102655.78;5051587;28;20067;-46
2022/03/20 09:01:03;;;;;;;21.48;15.00;;;;;;;5.77;46.76;102650.97;5050390;28;20112;-53
2022/03/20 09:03:30;;;;;;;23.05;15.73;;;;;;;5.73;47.03;102657.81;5052513;28;20045;-52
2022/03/20 09:05:58;;;;;;;23.13;15.25;;;;;;;5.71;47.12;102660.69;5052751;28;20037;-53
2022/03/20 09:08:26;;;;;;;23.42;15.77;;;;;;;5.76;47.42;102652.03;5051311;28;20407;-51
2022/03/20 09:10:53;;;;;;;26.52;17.40;;;;;;;5.77;47.17;102650.97;5052697;28;20132;-48
2022/03/20 09:13:21;;;;;;;21.95;14.10;;;;;;;5.81;47.04;102648.75;5050586;28;20037;-48
2022/03/20 09:18:59;;;;;;;22.58;15.05;;;;;;;5.87;46.88;102647.97;5053301;28;20048;-49
2022/03/20 09:21:23;;;;;;;24.55;15.98;;;;;;;5.96;46.71;102641.44;5056062;28;20464;-49
2022/03/20 09:23:50;;;;;;;24.42;16.40;;;;;;;5.90;46.94;102636.78;5056019;28;20045;-51
2022/03/20 09:26:18;;;;;;;26.77;15.35;;;;;;;5.93;47.26;102626.41;5053106;28;20040;-50
2022/03/20 09:28:47;;;;;;;26.08;15.48;;;;;;;6.04;47.73;102630.50;5055884;28;20053;-48
2022/03/20 09:31:15;;;;;;;24.23;15.35;;;;;;;6.09;47.09;102617.22;5055838;28;20419;-54
2022/03/20 09:33:43;;;;;;;24.17;16.70;;;;;;;6.20;46.88;102615.84;5054644;28;20076;-51
2022/03/20 09:36:11;;;;;;;23.20;16.15;;;;;;;6.25;47.11;102618.81;5037418;28;20044;-47
2022/03/20 09:38:39;;;;;;;24.20;14.77;;;;;;;6.28;47.22;102613.03;5054279;28;20060;-53
2022/03/20 09:41:08;;;;;;;23.88;16.23;;;;;;;6.33;46.98;102610.56;5054857;28;20409;-49
2022/03/20 09:43:39;;;;;;;25.30;16.38;;;;;;;6.34;47.34;102604.13;5054465;28;20147;-48
2022/03/20 09:46:13;;;;;;;;;;;;;;;6.45;47.29;102605.47;5044060;28;20048;-50
2022/03/20 09:48:42;;;;;;;23.73;15.20;;;;;;;6.54;47.05;102595.31;5035828;28;19928;-50
2022/03/20 09:51:10;;;;;;;23.35;15.00;;;;;;;6.66;47.09;102573.94;5035704;28;20063;-49
2022/03/20 09:53:37;;;;;;;25.35;16.67;;;;;;;6.72;46.54;102584.81;5035460;28;20046;-50
2022/03/20 09:56:09;;;;;;;26.02;18.17;;;;;;;6.78;46.84;102570.47;5036522;28;20046;-51
2022/03/20 09:58:36;;;;;;;22.73;15.25;;;;;;;6.78;46.92;102578.59;5035837;28;20029;-51
2022/03/20 10:01:04;;;;;;;24.73;13.80;;;;;;;6.77;47.04;102590.47;5035554;28;20041;-53
2022/03/20 10:03:32;;;;;;;25.13;16.98;;;;;;;6.77;46.52;102590.47;5035740;28;20121;-53
2022/03/20 10:06:07;;;;;;;26.05;15.32;;;;;;;6.85;47.68;102591.34;5047548;28;20041;-49
2022/03/20 10:08:35;;;;;;;26.95;18.70;;;;;;;6.87;47.11;102603.66;5055635;28;20056;-47
2022/03/20 10:11:16;;;;;;;24.52;16.15;;;;;;;6.86;46.69;102599.28;5055155;28;20047;-49
2022/03/20 10:14:05;;;;;;;28.67;18.65;;;;;;;6.82;46.55;102604.25;5055170;28;20045;-49
2022/03/20 10:16:34;;;;;;;24.70;17.00;;;;;;;6.89;47.07;102600.75;5053411;28;20049;-48
2022/03/20 10:19:02;;;;;;;26.75;14.77;;;;;;;6.92;49.43;102603.88;5054014;28;20384;-51
2022/03/20 10:21:44;;;;;;;28.85;19.05;;;;;;;6.88;47.17;102613.47;5053989;28;20377;-48
2022/03/20 10:24:20;;;;;;;24.73;16.95;;;;;;;6.86;47.80;102615.53;5054871;28;20052;-48
2022/03/20 10:27:14;;;;;;;26.33;17.70;;;;;;;6.90;46.72;102621.38;5032855;28;20052;-53
2022/03/20 10:29:55;;;;;;;27.42;18.10;;;;;;;6.91;47.26;102628.50;5034833;28;20050;-48
2022/03/20 10:32:24;;;;;;;27.67;17.60;;;;;;;6.94;47.95;102622.66;5034854;28;20522;-53
2022/03/20 10:35:01;;;;;;;27.17;19.63;;;;;;;6.91;47.61;102623.06;5036120;28;20060;-50
2022/03/20 10:37:52;;;;;;;28.20;20.50;;;;;;;6.85;49.36;102634.69;5037762;28;20048;-51
2022/03/20 10:40:26;;;;;;;29.23;21.67;;;;;;;6.77;50.05;102638.41;5054583;28;20132;-51
2022/03/20 10:43:09;;;;;;;25.10;14.13;;;;;;;6.81;57.98;102629.69;5054661;28;20041;-49
2022/03/20 10:45:53;;;;;;;27.85;17.80;;;;;;;6.85;53.95;102624.69;5042084;28;20071;-52
2022/03/20 10:48:33;;;;;;;27.52;21.02;;;;;;;6.76;53.98;102615.91;5033262;28;20046;-49
2022/03/20 10:51:01;;;;;;;27.38;21.35;;;;;;;6.76;54.66;102624.03;5034643;28;20046;-53
2022/03/20 10:53:29;;;;;;;32.72;21.92;;;;;;;6.72;55.20;102617.31;5034613;28;20069;-49
2022/03/20 10:56:17;;;;;;;30.30;21.08;;;;;;;6.75;54.98;102616.91;5035339;28;20087;-51
2022/03/20 10:58:45;;;;;;;26.60;19.75;;;;;;;6.83;55.55;102607.78;5038478;28;20044;-53
2022/03/20 11:01:13;;;;;;;29.45;22.17;;;;;;;6.78;57.19;102608.41;5054039;28;20407;-49
2022/03/20 11:03:41;;;;;;;26.83;18.67;;;;;;;6.81;57.46;102605.28;5053224;28;20398;-51
2022/03/20 11:06:10;;;;;;;30.00;21.33;;;;;;;6.79;58.06;102614.66;5033690;28;20133;-48
2022/03/20 11:08:38;;;;;;;29.73;21.17;;;;;;;6.79;57.85;102612.78;5034066;28;20045;-50
2022/03/20 11:11:10;;;;;;;28.70;21.67;;;;;;;6.81;57.96;102616.13;5034096;28;20042;-48
2022/03/20 11:13:40;;;;;;;29.35;21.10;;;;;;;6.83;58.36;102608.66;5034209;28;20045;-49
2022/03/20 11:16:08;;;;;;;30.95;22.38;;;;;;;6.87;58.95;102614.50;5033922;28;20049;-50
2022/03/20 11:18:39;;;;;;;25.90;19.15;;;;;;;6.93;59.33;102621.84;5033780;28;20037;-47
2022/03/20 11:21:08;;;;;;;29.50;21.65;;;;;;;6.94;58.69;102617.25;5034176;28;20049;-51
2022/03/20 11:23:36;;;;;;;28.83;18.10;;;;;;;6.97;60.68;102612.25;5032553;28;20045;-48
2022/03/20 11:26:04;;;;;;;23.35;16.35;;;;;;;7.07;62.46;102609.22;5032783;28;20583;-51
2022/03/20 11:28:41;;;;;;;26.88;19.20;;;;;;;7.02;62.26;102615.22;5032929;28;20056;-50
2022/03/20 11:31:09;;;;;;;31.58;22.77;;;;;;;6.94;61.83;102609.94;5033761;28;20057;-46
2022/03/20 11:33:37;;;;;;;27.63;22.25;;;;;;;6.89;62.46;102619.72;5033563;28;20488;-48
2022/03/20 11:36:05;;;;;;;30.33;22.73;;;;;;;6.87;62.23;102610.94;5028672;28;20389;-49
2022/03/20 11:38:35;;;;;;;29.35;21.63;;;;;;;6.89;61.81;102611.59;5048095;28;20057;-48
2022/03/20 11:41:08;;;;;;;28.88;21.88;;;;;;;6.94;60.80;102618.06;5033478;28;20041;-47
2022/03/20 11:43:41;;;;;;;32.92;22.80;;;;;;;6.99;60.75;102614.78;5035517;28;20045;-51
2022/03/20 11:46:22;;;;;;;28.17;21.23;;;;;;;7.02;60.56;102607.09;5054609;28;20526;-46
2022/03/20 11:49:18;;;;;;;34.40;23.05;;;;;;;7.10;60.32;102608.78;5052659;28;20047;-51
2022/03/20 11:52:03;;;;;;;34.17;23.95;;;;;;;7.16;58.97;102607.16;5053482;28;20044;-51
2022/03/20 11:54:52;;;;;;;34.25;24.02;;;;;;;7.19;58.76;102607.59;5051665;28;20385;-49
2022/03/20 11:57:32;;;;;;;33.33;23.40;;;;;;;7.18;57.72;102608.63;5052363;28;20408;-50
2022/03/20 12:00:11;;;;;;;31.05;21.60;;;;;;;7.17;57.23;102601.53;5052842;28;20044;-51